createdAt,value
2019-03-22T06:34:55.804Z,5.36
2019-03-22T06:35:56.039Z,5.57
2019-03-22T06:38:00.237Z,5.36
2019-03-22T06:39:00.450Z,5.27
2019-03-22T06:41:04.603Z,5.02
2019-03-22T06:42:04.835Z,5.24
2019-03-22T06:44:09.011Z,5.57
2019-03-22T06:45:09.252Z,5.85
2019-03-22T06:47:13.401Z,6.15
2019-03-22T06:48:13.638Z,6.21
2019-03-22T06:50:17.816Z,6.33
2019-03-22T06:51:18.050Z,6.33
2019-03-22T06:53:22.228Z,6.03
2019-03-22T06:54:31.589Z,6.00
2019-03-22T06:56:26.618Z,6.22
2019-03-22T06:57:26.853Z,6.22
2019-03-22T06:59:19.963Z,6.51
2019-03-22T07:00:20.199Z,6.55
2019-03-22T07:02:24.350Z,6.85
2019-03-22T07:03:24.587Z,7.06
2019-03-22T07:05:28.760Z,7.61
2019-03-22T07:06:28.998Z,7.85
2019-03-22T07:08:33.176Z,8.34
2019-03-22T07:09:33.411Z,8.50
2019-03-22T07:11:37.563Z,8.77
2019-03-22T07:12:37.799Z,9.01
2019-03-22T07:14:41.984Z,9.46
2019-03-22T07:15:42.294Z,9.43
2019-03-22T07:17:46.394Z,9.89
2019-03-22T07:18:46.633Z,10.17
2019-03-22T07:20:50.786Z,10.81
2019-03-22T07:21:51.032Z,11.03
2019-03-22T07:23:55.208Z,11.78
2019-03-22T07:24:55.447Z,11.95
2019-03-22T07:26:59.610Z,12.62
2019-03-22T07:27:59.852Z,13.05
2019-03-22T07:30:04.037Z,14.02
2019-03-22T07:31:04.275Z,14.06
2019-03-22T07:33:08.450Z,14.42
2019-03-22T07:34:08.690Z,14.39
2019-03-22T07:36:12.850Z,14.57
2019-03-22T07:37:13.091Z,14.65
2019-03-22T07:39:06.199Z,14.77
2019-03-22T07:40:06.442Z,14.00
2019-03-22T07:42:10.601Z,14.77
2019-03-22T07:43:10.843Z,14.99
2019-03-22T07:45:15.023Z,15.51
2019-03-22T07:46:16.025Z,15.75
2019-03-22T07:48:19.520Z,16.14
2019-03-22T07:49:19.763Z,16.24
2019-03-22T07:51:23.932Z,16.63
2019-03-22T07:52:24.170Z,16.75
2019-03-22T07:54:28.358Z,17.16
2019-03-22T07:55:28.600Z,17.23
2019-03-22T07:57:32.767Z,17.23
2019-03-22T07:58:33.010Z,17.43
2019-03-22T08:00:37.196Z,18.07
2019-03-22T08:01:37.438Z,18.69
2019-03-22T08:03:41.634Z,18.44
2019-03-22T08:04:41.872Z,18.08
2019-03-22T08:06:46.039Z,17.90
2019-03-22T08:07:46.283Z,17.71
2019-03-22T08:09:39.440Z,17.70
2019-03-22T08:10:39.673Z,17.79
2019-03-22T08:12:43.815Z,17.86
2019-03-22T08:13:44.085Z,18.08
2019-03-22T08:15:48.294Z,17.38
2019-03-22T08:16:48.510Z,17.19
2019-03-22T08:18:52.696Z,16.83
2019-03-22T08:19:52.941Z,16.75
2019-03-22T08:21:57.112Z,17.36
2019-03-22T08:22:57.358Z,17.84
2019-03-22T08:25:01.584Z,18.08
2019-03-22T08:26:01.797Z,17.87
2019-03-22T08:28:05.999Z,18.63
2019-03-22T08:29:06.230Z,18.70
2019-03-22T08:31:10.426Z,18.73
2019-03-22T08:32:10.663Z,19.00
2019-03-22T08:34:14.922Z,18.70
2019-03-22T08:35:15.104Z,18.76
2019-03-22T08:37:19.273Z,19.02
2019-03-22T08:38:19.519Z,18.36
2019-03-22T08:40:23.721Z,18.98
2019-03-22T08:41:24.143Z,19.00
2019-03-22T08:43:28.175Z,19.73
2019-03-22T08:44:28.408Z,20.14
2019-03-22T08:46:32.602Z,20.11
2019-03-22T08:47:34.173Z,20.73
2019-03-22T08:49:26.019Z,21.47
2019-03-22T08:50:26.195Z,22.06
2019-03-22T08:52:30.369Z,21.91
2019-03-22T08:53:30.621Z,22.36
2019-03-22T08:55:34.824Z,22.85
2019-03-22T08:56:36.202Z,23.31
2019-03-22T08:58:39.267Z,24.27
2019-03-22T08:59:39.517Z,24.60
2019-03-22T09:01:43.693Z,25.60
2019-03-22T09:02:43.969Z,25.64
2019-03-22T09:04:48.198Z,25.06
2019-03-22T09:05:48.403Z,25.24
2019-03-22T09:07:52.592Z,24.78
2019-03-22T09:08:52.867Z,24.50
2019-03-22T09:10:57.043Z,23.47
2019-03-22T09:11:57.332Z,23.50
2019-03-22T09:14:01.497Z,24.35
2019-03-22T09:15:01.799Z,24.58
2019-03-22T09:17:05.927Z,25.10
2019-03-22T09:18:06.182Z,25.45
2019-03-22T09:20:10.427Z,25.55
2019-03-22T09:21:10.634Z,25.75
2019-03-22T09:23:14.836Z,25.14
2019-03-22T09:24:15.061Z,25.03
2019-03-22T09:26:20.126Z,25.15
2019-03-22T09:27:19.518Z,25.15
2019-03-22T09:29:12.684Z,25.51
2019-03-22T09:30:12.904Z,25.75
2019-03-22T09:32:17.096Z,26.40
2019-03-22T09:33:17.336Z,27.02
2019-03-22T09:35:21.542Z,26.91
2019-03-22T09:36:21.836Z,26.84
2019-03-22T09:38:28.516Z,25.90
2019-03-22T09:39:26.246Z,26.26
2019-03-22T09:41:30.440Z,26.43
2019-03-22T09:42:30.694Z,26.48
2019-03-22T09:44:43.086Z,26.44
2019-03-22T09:45:35.178Z,26.40
2019-03-22T09:47:39.362Z,23.10
2019-03-22T09:48:39.591Z,22.92
2019-03-22T09:50:43.810Z,25.35
2019-03-22T09:51:44.050Z,26.57
2019-03-22T09:53:48.254Z,26.51
2019-03-22T09:54:48.516Z,26.84
2019-03-22T09:56:52.723Z,27.21
2019-03-22T09:57:52.965Z,27.32
2019-03-22T09:59:57.160Z,28.09
2019-03-22T10:00:57.438Z,26.29
2019-03-22T10:03:01.608Z,26.26
2019-03-22T10:04:01.857Z,26.39
2019-03-22T10:06:06.068Z,27.85
2019-03-22T10:07:06.321Z,27.03
2019-03-22T10:09:02.644Z,27.44
2019-03-22T10:09:59.692Z,24.25
2019-03-22T10:12:03.929Z,25.32
2019-03-22T10:13:04.155Z,25.65
2019-03-22T10:15:08.368Z,25.64
2019-03-22T10:16:08.678Z,26.39
2019-03-22T10:18:12.823Z,26.50
2019-03-22T10:19:13.132Z,26.45
2019-03-22T10:21:22.485Z,27.74
2019-03-22T10:22:17.537Z,26.39
2019-03-22T10:24:21.744Z,23.28
2019-03-22T10:25:22.087Z,24.39
2019-03-22T10:27:26.234Z,26.23
2019-03-22T10:28:26.481Z,26.65
2019-03-22T10:30:30.686Z,24.93
2019-03-22T10:31:37.139Z,23.43
2019-03-22T10:33:35.122Z,21.80
2019-03-22T10:34:35.367Z,22.09
2019-03-22T10:36:39.580Z,21.65
2019-03-22T10:37:39.977Z,22.27
2019-03-22T10:39:32.984Z,22.54
2019-03-22T10:40:33.251Z,22.20
2019-03-22T10:42:37.460Z,22.03
2019-03-22T10:43:37.677Z,22.60
2019-03-22T10:45:41.920Z,22.77
2019-03-22T10:46:42.162Z,22.76
2019-03-22T10:48:46.389Z,23.20
2019-03-22T10:49:46.569Z,23.87
2019-03-22T10:51:56.808Z,26.45
2019-03-22T10:52:51.074Z,25.61
2019-03-22T10:54:55.294Z,23.63
2019-03-22T10:55:55.491Z,24.28
2019-03-22T10:57:59.675Z,23.27
2019-03-22T10:58:59.929Z,22.92
2019-03-22T11:01:04.136Z,22.21
2019-03-22T11:02:07.535Z,21.67
2019-03-22T11:05:08.838Z,21.74
2019-03-22T11:07:13.046Z,22.07
2019-03-22T11:08:13.309Z,21.42
2019-03-22T11:10:17.503Z,21.67
2019-03-22T11:11:17.757Z,23.31
2019-03-22T11:13:21.939Z,23.12
2019-03-22T11:14:22.196Z,22.97
2019-03-22T11:16:26.401Z,21.75
2019-03-22T11:17:26.663Z,21.91
2019-03-22T11:19:19.765Z,22.36
2019-03-22T11:20:20.021Z,22.65
2019-03-22T11:22:24.240Z,22.10
2019-03-22T11:23:24.479Z,22.67
2019-03-22T11:25:28.687Z,26.20
2019-03-22T11:26:28.937Z,27.28
2019-03-22T11:28:33.119Z,27.18
2019-03-22T11:29:33.376Z,23.85
2019-03-22T11:31:40.185Z,23.05
2019-03-22T11:32:37.839Z,22.86
2019-03-22T11:34:42.048Z,22.46
2019-03-22T11:35:42.304Z,22.30
2019-03-22T11:37:46.489Z,22.90
2019-03-22T11:38:46.742Z,24.10
2019-03-22T11:40:50.953Z,23.33
2019-03-22T11:41:51.206Z,24.85
2019-03-22T11:43:55.402Z,24.88
2019-03-22T11:44:55.650Z,26.44
2019-03-22T11:46:59.857Z,27.34
2019-03-22T11:48:00.612Z,27.67
2019-03-22T11:50:04.317Z,25.39
2019-03-22T11:51:04.574Z,24.40
2019-03-22T11:53:08.763Z,26.40
2019-03-22T11:54:09.015Z,25.76
2019-03-22T11:56:13.223Z,26.12
2019-03-22T11:57:13.475Z,26.89
2019-03-22T11:59:06.626Z,25.20
2019-03-22T12:00:06.846Z,24.21
2019-03-22T12:02:11.055Z,24.03
2019-03-22T12:03:11.307Z,25.02
2019-03-22T12:05:15.518Z,25.18
2019-03-22T12:06:15.771Z,25.05
2019-03-22T12:08:19.964Z,25.91
2019-03-22T12:09:20.210Z,26.07
2019-03-22T12:11:24.468Z,24.73
2019-03-22T12:12:24.682Z,24.83
2019-03-22T12:14:28.866Z,24.22
2019-03-22T12:15:29.122Z,23.91
2019-03-22T12:17:33.336Z,22.94
2019-03-22T12:18:33.594Z,22.91
2019-03-22T12:20:37.801Z,24.93
2019-03-22T12:21:38.059Z,24.03
2019-03-22T12:23:42.245Z,24.34
2019-03-22T12:24:42.502Z,23.80
2019-03-22T12:26:46.711Z,24.15
2019-03-22T12:27:48.477Z,26.02
2019-03-22T12:29:40.074Z,26.54
2019-03-22T12:30:40.331Z,26.29
2019-03-22T12:32:44.539Z,25.33
2019-03-22T12:33:44.800Z,24.95
2019-03-22T12:35:49.498Z,24.95
2019-03-22T12:36:49.756Z,25.23
2019-03-22T12:38:53.949Z,23.38
2019-03-22T12:39:54.204Z,23.42
2019-03-22T12:41:58.415Z,23.36
2019-03-22T12:42:58.669Z,23.20
2019-03-22T12:45:02.877Z,22.92
2019-03-22T12:46:03.131Z,23.20
2019-03-22T12:48:07.321Z,23.65
2019-03-22T12:49:07.572Z,24.15
2019-03-22T12:51:11.778Z,24.12
2019-03-22T12:52:12.033Z,23.01
2019-03-22T12:54:16.216Z,23.65
2019-03-22T12:55:16.469Z,24.22
2019-03-22T12:57:20.726Z,22.92
2019-03-22T12:58:21.099Z,22.86
2019-03-22T13:00:25.324Z,22.52
2019-03-22T13:01:25.605Z,24.25
2019-03-22T13:03:29.794Z,23.51
2019-03-22T13:04:30.081Z,23.28
2019-03-22T13:06:34.377Z,24.58
2019-03-22T13:07:34.698Z,23.53
2019-03-22T13:09:28.865Z,24.10
2019-03-22T13:10:29.178Z,22.83
2019-03-22T13:12:22.831Z,22.68
2019-03-22T13:13:23.071Z,22.86
2019-03-22T13:15:27.366Z,23.01
2019-03-22T13:16:27.659Z,22.40
2019-03-22T13:18:33.281Z,25.30
2019-03-22T13:19:33.170Z,24.76
2019-03-22T13:21:37.571Z,25.95
2019-03-22T13:22:37.725Z,27.03
2019-03-22T13:24:41.997Z,28.22
2019-03-22T13:25:42.355Z,26.43
2019-03-22T13:27:46.591Z,25.28
2019-03-22T13:28:46.886Z,25.13
2019-03-22T13:30:51.104Z,27.27
2019-03-22T13:31:51.433Z,27.90
2019-03-22T13:33:55.614Z,25.28
2019-03-22T13:34:55.899Z,25.61
2019-03-22T13:37:01.081Z,24.71
2019-03-22T13:38:01.334Z,26.01
2019-03-22T13:40:05.521Z,28.18
2019-03-22T13:41:05.762Z,28.34
2019-03-22T13:43:09.988Z,26.21
2019-03-22T13:44:10.263Z,25.20
2019-03-22T13:46:14.556Z,24.18
2019-03-22T13:47:14.810Z,23.93
2019-03-22T13:49:07.924Z,26.28
2019-03-22T13:50:08.205Z,25.32
2019-03-22T13:52:14.248Z,24.47
2019-03-22T13:53:12.690Z,25.08
2019-03-22T13:55:16.883Z,24.10
2019-03-22T13:56:17.142Z,23.69
2019-03-22T13:58:21.440Z,23.84
2019-03-22T13:59:21.796Z,23.83
2019-03-22T14:01:26.006Z,24.47
2019-03-22T14:02:26.257Z,24.31
2019-03-22T14:04:30.457Z,25.27
2019-03-22T14:05:30.705Z,24.25
2019-03-22T14:07:35.928Z,23.68
2019-03-22T14:08:36.179Z,23.66
2019-03-22T14:10:40.388Z,24.20
2019-03-22T14:11:40.644Z,23.90
2019-03-22T14:13:44.850Z,25.62
2019-03-22T14:14:45.110Z,24.69
2019-03-22T14:16:49.327Z,24.21
2019-03-22T14:17:49.580Z,24.21
2019-03-22T14:19:42.701Z,24.20
2019-03-22T14:20:42.952Z,24.30
2019-03-22T14:22:47.164Z,23.38
2019-03-22T14:23:47.417Z,23.46
2019-03-22T14:25:51.628Z,25.10
2019-03-22T14:26:51.893Z,23.57
2019-03-22T14:28:56.263Z,23.31
2019-03-22T14:29:56.519Z,23.63
2019-03-22T14:32:00.731Z,22.80
2019-03-22T14:33:00.984Z,22.85
2019-03-22T14:35:05.172Z,22.40
2019-03-22T14:36:05.423Z,22.77
2019-03-22T14:38:09.633Z,22.83
2019-03-22T14:39:09.887Z,22.72
2019-03-22T14:41:14.102Z,22.85
2019-03-22T14:42:14.351Z,22.95
2019-03-22T14:44:25.251Z,23.36
2019-03-22T14:45:18.777Z,23.10
2019-03-22T14:47:22.987Z,22.92
2019-03-22T14:48:23.239Z,23.01
2019-03-22T14:50:27.429Z,23.33
2019-03-22T14:51:27.680Z,23.57
2019-03-22T14:53:31.882Z,23.51
2019-03-22T14:54:32.132Z,24.47
2019-03-22T14:56:37.347Z,23.87
2019-03-22T14:57:47.869Z,24.08
2019-03-22T14:59:30.727Z,23.58
2019-03-22T15:00:30.982Z,23.72
2019-03-22T15:02:35.189Z,24.80
2019-03-22T15:03:35.432Z,24.00
2019-03-22T15:05:39.613Z,23.22
2019-03-22T15:06:39.864Z,22.83
2019-03-22T15:08:44.067Z,22.91
2019-03-22T15:09:46.235Z,23.22
2019-03-22T15:11:48.523Z,22.91
2019-03-22T15:12:48.772Z,22.90
2019-03-22T15:14:52.957Z,22.92
2019-03-22T15:15:53.209Z,22.62
2019-03-22T15:17:57.416Z,22.75
2019-03-22T15:18:57.660Z,22.90
2019-03-22T15:21:01.839Z,23.05
2019-03-22T15:22:02.090Z,23.17
2019-03-22T15:24:06.293Z,22.67
2019-03-22T15:25:06.542Z,22.36
2019-03-22T15:27:10.745Z,22.79
2019-03-22T15:28:10.995Z,23.00
2019-03-22T15:30:15.175Z,23.38
2019-03-22T15:31:15.422Z,23.93
2019-03-22T15:33:19.657Z,23.25
2019-03-22T15:34:19.874Z,22.75
2019-03-22T15:36:24.109Z,22.25
2019-03-22T15:37:24.453Z,22.40
2019-03-22T15:39:17.600Z,22.54
2019-03-22T15:40:17.718Z,22.22
2019-03-22T15:42:21.919Z,22.46
2019-03-22T15:43:22.168Z,22.57
2019-03-22T15:45:26.347Z,22.37
2019-03-22T15:46:26.595Z,22.90
2019-03-22T15:48:30.796Z,23.43
2019-03-22T15:49:31.047Z,23.69
2019-03-22T15:51:35.261Z,22.54
2019-03-22T15:52:35.507Z,22.09
2019-03-22T15:54:40.693Z,21.94
2019-03-22T15:55:40.945Z,21.86
2019-03-22T15:57:45.154Z,21.56
2019-03-22T15:58:45.401Z,21.62
2019-03-22T16:00:49.583Z,21.75
2019-03-22T16:01:49.837Z,21.79
2019-03-22T16:03:54.040Z,21.79
2019-03-22T16:04:54.287Z,21.84
2019-03-22T16:06:59.501Z,21.83
2019-03-22T16:07:59.746Z,21.72
2019-03-22T16:10:03.922Z,21.71
2019-03-22T16:11:04.169Z,21.74
2019-03-22T16:13:08.369Z,21.83
2019-03-22T16:14:08.617Z,21.79
2019-03-22T16:16:12.794Z,21.54
2019-03-22T16:17:13.047Z,21.53
2019-03-22T16:19:06.194Z,21.50
2019-03-22T16:20:06.441Z,21.46
2019-03-22T16:22:10.639Z,21.43
2019-03-22T16:23:10.888Z,21.19
2019-03-22T16:25:15.066Z,21.03
2019-03-22T16:26:15.311Z,21.03
2019-03-22T16:28:19.508Z,21.03
2019-03-22T16:29:19.756Z,21.04
2019-03-22T16:31:23.927Z,20.95
2019-03-22T16:32:24.177Z,20.82
2019-03-22T16:34:28.373Z,21.01
2019-03-22T16:35:28.623Z,20.98
2019-03-22T16:37:32.817Z,21.03
2019-03-22T16:38:33.062Z,20.85
2019-03-22T16:40:37.231Z,20.76
2019-03-22T16:41:37.477Z,20.66
2019-03-22T16:43:41.681Z,20.51
2019-03-22T16:44:41.928Z,20.43
2019-03-22T16:46:46.101Z,20.41
2019-03-22T16:47:46.352Z,20.28
2019-03-22T16:49:39.477Z,20.35
2019-03-22T16:50:39.721Z,20.39
2019-03-22T16:52:43.921Z,20.13
2019-03-22T16:53:44.168Z,20.17
2019-03-22T16:55:48.339Z,19.83
2019-03-22T16:56:48.592Z,19.94
2019-03-22T16:58:52.786Z,19.91
2019-03-22T16:59:53.035Z,19.92
2019-03-22T17:01:57.209Z,20.03
2019-03-22T17:02:57.454Z,20.06
2019-03-22T17:05:01.649Z,20.06
2019-03-22T17:06:01.899Z,20.05
2019-03-22T17:08:06.089Z,19.51
2019-03-22T17:09:06.339Z,19.29
2019-03-22T17:11:10.517Z,19.37
2019-03-22T17:12:10.759Z,19.37
2019-03-22T17:14:14.956Z,19.32
2019-03-22T17:15:15.201Z,19.32
2019-03-22T17:17:19.374Z,19.21
2019-03-22T17:18:19.620Z,19.13
2019-03-22T17:20:23.814Z,18.99
2019-03-22T17:21:24.064Z,18.95
2019-03-22T17:23:28.272Z,18.76
2019-03-22T17:24:28.513Z,18.62
2019-03-22T17:26:32.686Z,17.58
2019-03-22T17:27:32.933Z,17.36
2019-03-22T17:29:26.052Z,17.06
2019-03-22T17:30:26.296Z,16.83
2019-03-22T17:32:30.475Z,16.50
2019-03-22T17:33:31.511Z,16.33
2019-03-22T17:35:34.978Z,16.34
2019-03-22T17:36:35.223Z,16.33
2019-03-22T17:38:39.413Z,16.27
2019-03-22T17:39:39.665Z,16.30
2019-03-22T17:41:43.826Z,16.04
2019-03-22T17:42:44.071Z,16.04
2019-03-22T17:44:48.268Z,16.02
2019-03-22T17:45:48.513Z,15.96
2019-03-22T17:47:52.701Z,15.94
2019-03-22T17:48:52.944Z,16.09
2019-03-22T17:50:57.121Z,16.20
2019-03-22T17:51:57.363Z,16.21
2019-03-22T17:54:01.552Z,16.04
2019-03-22T17:55:01.799Z,16.04
2019-03-22T17:57:05.968Z,15.96
2019-03-22T17:58:06.215Z,15.94
2019-03-22T18:00:10.402Z,15.93
2019-03-22T18:01:10.644Z,15.86
2019-03-22T18:03:14.831Z,15.86
2019-03-22T18:04:23.816Z,15.86
2019-03-22T18:06:19.236Z,15.72
2019-03-22T18:07:19.483Z,15.75
2019-03-22T18:09:12.594Z,15.54
2019-03-22T18:10:12.840Z,15.39
2019-03-22T18:12:17.006Z,15.35
2019-03-22T18:13:17.250Z,15.27
2019-03-22T18:15:21.438Z,15.19
2019-03-22T18:16:21.681Z,15.07
2019-03-22T18:18:25.857Z,14.99
2019-03-22T18:19:26.098Z,14.94
2019-03-22T18:21:30.261Z,14.78
2019-03-22T18:22:30.566Z,14.80
2019-03-22T18:24:34.758Z,14.69
2019-03-22T18:25:34.999Z,14.62
2019-03-22T18:27:39.161Z,14.45
2019-03-22T18:28:39.398Z,14.35
2019-03-22T18:30:43.582Z,14.14
2019-03-22T18:31:43.823Z,14.14
2019-03-22T18:33:48.006Z,14.28
2019-03-22T18:34:48.445Z,14.28
2019-03-22T18:36:52.375Z,14.43
2019-03-22T18:37:52.618Z,14.51
2019-03-22T18:39:45.725Z,14.68
2019-03-22T18:40:46.046Z,14.72
2019-03-22T18:42:50.273Z,14.69
2019-03-22T18:43:50.507Z,14.83
2019-03-22T18:45:54.694Z,14.72
2019-03-22T18:46:54.934Z,14.72
2019-03-22T18:48:59.182Z,14.46
2019-03-22T18:49:59.529Z,14.42
2019-03-22T18:52:03.716Z,14.27
2019-03-22T18:53:03.953Z,14.14
2019-03-22T18:55:08.132Z,14.18
2019-03-22T18:56:08.455Z,14.18
2019-03-22T18:58:12.690Z,14.18
2019-03-22T18:59:12.923Z,14.15
2019-03-22T19:01:17.592Z,14.07
2019-03-22T19:02:17.831Z,13.95
2019-03-22T19:04:22.045Z,13.77
2019-03-22T19:05:22.325Z,13.51
2019-03-22T19:07:26.494Z,13.33
2019-03-22T19:08:26.737Z,13.17
2019-03-22T19:10:30.974Z,12.97
2019-03-22T19:11:31.214Z,12.78
2019-03-22T19:13:35.391Z,12.57
2019-03-22T19:14:35.693Z,12.47
2019-03-22T19:16:39.889Z,12.28
2019-03-22T19:17:40.343Z,12.23
2019-03-22T19:19:33.348Z,12.02
2019-03-22T19:20:33.583Z,12.07
2019-03-22T19:22:38.754Z,11.85
2019-03-22T19:23:38.995Z,11.90
2019-03-22T19:25:43.175Z,11.83
2019-03-22T19:26:43.417Z,11.82
2019-03-22T19:28:47.600Z,12.09
2019-03-22T19:29:47.836Z,12.28
2019-03-22T19:31:51.995Z,12.52
2019-03-22T19:32:52.236Z,12.65
2019-03-22T19:34:56.414Z,12.82
2019-03-22T19:35:56.658Z,12.86
2019-03-22T19:38:00.823Z,13.05
2019-03-22T19:39:01.056Z,13.03
2019-03-22T19:41:05.236Z,12.86
2019-03-22T19:42:05.477Z,12.77
2019-03-22T19:44:09.658Z,12.65
2019-03-22T19:45:09.905Z,12.59
2019-03-22T19:47:14.064Z,12.57
2019-03-22T19:48:14.343Z,12.64
2019-03-22T19:50:18.487Z,12.24
2019-03-22T19:51:18.724Z,12.24
2019-03-22T19:53:22.898Z,12.38
2019-03-22T19:54:23.165Z,12.39
2019-03-22T19:56:27.303Z,12.28
2019-03-22T19:57:27.544Z,12.16
2019-03-22T19:59:20.651Z,12.13
2019-03-22T20:00:20.889Z,12.02
2019-03-22T20:02:25.045Z,12.14
2019-03-22T20:03:25.285Z,12.20
2019-03-22T20:05:29.463Z,12.52
2019-03-22T20:06:29.706Z,12.37
2019-03-22T20:08:33.882Z,11.94
2019-03-22T20:09:34.120Z,11.62
2019-03-22T20:11:38.307Z,11.02
2019-03-22T20:12:38.512Z,10.89
2019-03-22T20:14:43.698Z,10.85
2019-03-22T20:15:43.935Z,10.85
2019-03-22T20:17:48.094Z,10.66
2019-03-22T20:18:48.334Z,10.68
2019-03-22T20:20:52.682Z,10.53
2019-03-22T20:21:52.909Z,10.38
2019-03-22T20:23:57.277Z,10.22
2019-03-22T20:24:57.622Z,10.22
2019-03-22T20:27:01.811Z,10.11
2019-03-22T20:28:02.168Z,9.99
2019-03-22T20:30:06.362Z,9.94
2019-03-22T20:31:07.554Z,9.89
2019-03-22T20:33:10.837Z,9.87
2019-03-22T20:34:11.237Z,9.91
2019-03-22T20:36:15.602Z,10.25
2019-03-22T20:37:15.822Z,10.36
2019-03-22T20:39:08.931Z,10.42
2019-03-22T20:40:09.163Z,10.44
2019-03-22T20:42:13.334Z,10.42
2019-03-22T20:43:13.578Z,10.64
2019-03-22T20:45:23.998Z,10.71
2019-03-22T20:46:18.002Z,10.76
2019-03-22T20:48:22.161Z,10.79
2019-03-22T20:49:22.400Z,10.81
2019-03-22T20:51:26.781Z,11.02
2019-03-22T20:52:27.148Z,11.06
2019-03-22T20:54:31.337Z,11.07
2019-03-22T20:55:31.743Z,10.94
2019-03-22T20:57:36.495Z,10.86
2019-03-22T20:58:36.886Z,10.74
2019-03-22T21:00:41.250Z,10.48
2019-03-22T21:01:41.470Z,10.34
2019-03-22T21:03:45.786Z,10.20
2019-03-22T21:04:46.069Z,10.18
2019-03-22T21:06:50.271Z,10.04
2019-03-22T21:07:50.626Z,10.05
2019-03-22T21:09:43.863Z,9.97
2019-03-22T21:10:44.285Z,9.89
2019-03-22T21:12:48.463Z,10.17
2019-03-22T21:13:48.703Z,10.42
2019-03-22T21:15:52.996Z,10.63
2019-03-22T21:16:53.287Z,10.70
2019-03-22T21:18:57.623Z,10.91
2019-03-22T21:19:57.864Z,10.76
2019-03-22T21:22:02.112Z,10.59
2019-03-22T21:23:02.382Z,10.56
2019-03-22T21:25:06.697Z,10.01
2019-03-22T21:26:07.083Z,9.83
2019-03-22T21:28:11.243Z,10.32
2019-03-22T21:29:11.608Z,10.26
2019-03-22T21:31:15.794Z,10.26
2019-03-22T21:32:16.091Z,10.04
2019-03-22T21:34:20.272Z,9.94
2019-03-22T21:35:22.809Z,10.15
2019-03-22T21:37:24.837Z,10.22
2019-03-22T21:38:25.105Z,10.09
2019-03-22T21:40:29.284Z,9.93
2019-03-22T21:41:29.521Z,9.68
2019-03-22T21:43:33.734Z,9.78
2019-03-22T21:44:33.917Z,9.78
2019-03-22T21:46:38.092Z,9.72
2019-03-22T21:47:38.335Z,9.68
2019-03-22T21:49:31.434Z,9.60
2019-03-22T21:50:31.673Z,9.65
2019-03-22T21:52:35.823Z,9.53
2019-03-22T21:53:36.058Z,9.35
2019-03-22T21:55:40.238Z,8.70
2019-03-22T21:56:40.475Z,8.61
2019-03-22T21:58:44.684Z,8.58
2019-03-22T21:59:44.865Z,8.45
2019-03-22T22:01:49.044Z,8.36
2019-03-22T22:02:49.282Z,8.25
2019-03-22T22:04:53.455Z,8.20
2019-03-22T22:05:53.691Z,8.50
2019-03-22T22:07:57.841Z,9.02
2019-03-22T22:08:58.078Z,8.95
2019-03-22T22:11:02.256Z,9.26
2019-03-22T22:12:02.495Z,9.26
2019-03-22T22:14:06.673Z,9.57
2019-03-22T22:15:06.912Z,9.79
2019-03-22T22:17:11.075Z,9.93
2019-03-22T22:18:11.300Z,9.87
2019-03-22T22:20:15.483Z,9.86
2019-03-22T22:21:15.721Z,9.75
2019-03-22T22:23:19.906Z,9.66
2019-03-22T22:24:20.106Z,9.58
2019-03-22T22:26:24.279Z,8.96
2019-03-22T22:27:24.516Z,8.81
2019-03-22T22:29:17.615Z,8.89
2019-03-22T22:30:17.850Z,9.08
2019-03-22T22:32:22.003Z,8.68
2019-03-22T22:33:22.243Z,8.55
2019-03-22T22:35:26.435Z,8.41
2019-03-22T22:36:26.676Z,8.29
2019-03-22T22:38:30.827Z,8.58
2019-03-22T22:39:31.087Z,8.70
2019-03-22T22:41:35.240Z,8.71
2019-03-22T22:42:35.475Z,8.50
2019-03-22T22:44:39.653Z,8.48
2019-03-22T22:45:39.894Z,8.28
2019-03-22T22:47:44.047Z,8.08
2019-03-22T22:48:44.284Z,8.00
2019-03-22T22:50:48.458Z,8.04
2019-03-22T22:51:48.695Z,8.12
2019-03-22T22:53:52.847Z,8.28
2019-03-22T22:54:53.088Z,8.26
2019-03-22T22:56:57.259Z,8.29
2019-03-22T22:57:57.501Z,8.37
2019-03-22T23:00:01.677Z,8.38
2019-03-22T23:01:01.914Z,8.36
2019-03-22T23:03:06.065Z,8.25
2019-03-22T23:04:06.302Z,8.08
2019-03-22T23:06:10.483Z,8.01
2019-03-22T23:07:10.718Z,7.95
2019-03-22T23:09:03.799Z,7.72
2019-03-22T23:10:04.036Z,7.74
2019-03-22T23:12:08.215Z,7.69
2019-03-22T23:13:08.450Z,7.64
2019-03-22T23:15:12.627Z,7.64
2019-03-22T23:16:12.864Z,7.72
2019-03-22T23:18:17.020Z,8.01
2019-03-22T23:19:17.259Z,8.08
2019-03-22T23:21:21.436Z,8.11
2019-03-22T23:22:21.674Z,8.20
2019-03-22T23:24:25.828Z,8.25
2019-03-22T23:25:26.065Z,8.23
2019-03-22T23:27:30.246Z,8.12
2019-03-22T23:28:30.490Z,8.01
2019-03-22T23:30:34.664Z,7.86
2019-03-22T23:31:34.901Z,7.80
2019-03-22T23:33:39.056Z,7.63
2019-03-22T23:34:39.293Z,7.55
2019-03-22T23:36:43.468Z,7.48
2019-03-22T23:37:43.711Z,7.35
2019-03-22T23:39:36.826Z,7.30
2019-03-22T23:40:37.061Z,7.24
2019-03-22T23:42:41.216Z,7.28
2019-03-22T23:43:41.454Z,7.07
2019-03-22T23:45:45.628Z,7.13
2019-03-22T23:46:45.865Z,7.06
2019-03-22T23:48:50.022Z,7.32
2019-03-22T23:49:50.256Z,7.45
2019-03-22T23:51:54.433Z,7.98
2019-03-22T23:52:54.672Z,8.12
2019-03-22T23:54:58.858Z,8.28
2019-03-22T23:55:59.096Z,8.22
2019-03-22T23:58:03.263Z,8.15
2019-03-22T23:59:03.499Z,8.12
